Time;durP1;ratioP1;P1;durP2;ratioP2;P2;SDS_P1;SDS_P2;PMS_P1;PMS_P2;Temp;Humidity;BMP_temperature;BMP_pressure;BME280_temperature;BME280_humidity;BME280_pressure;Samples;Min_cycle;Max_cycle;Signal;HPM_P1;HPM_P2
2023/04/15 00:01:47;;;;;;;;;;;17.70;45.70;;;;;;5072729;28;19966;-67
2023/04/15 00:04:12;;;;;;;;;;;17.70;45.70;;;;;;5072829;28;20480;-67
2023/04/15 00:06:38;;;;;;;;;;;17.60;45.70;;;;;;5054806;28;19985;-67
2023/04/15 00:09:04;;;;;;;;;;;17.60;45.70;;;;;;5072896;28;19929;-67
2023/04/15 00:11:30;;;;;;;;;;;17.60;45.80;;;;;;5072665;28;20020;-67
2023/04/15 00:13:55;;;;;;;;;;;17.60;45.80;;;;;;5054927;28;19974;-68
2023/04/15 00:16:21;;;;;;;;;;;17.60;45.80;;;;;;5054882;28;20376;-67
2023/04/15 00:18:46;;;;;;;;;;;17.60;45.80;;;;;;5054674;28;20395;-68
2023/04/15 00:21:12;;;;;;;;;;;17.60;45.80;;;;;;5054882;28;19962;-67
2023/04/15 00:23:37;;;;;;;;;;;17.60;45.80;;;;;;5072816;28;20368;-67
2023/04/15 00:26:03;;;;;;;;;;;17.60;45.80;;;;;;5054732;28;19920;-67
2023/04/15 00:28:29;;;;;;;;;;;17.60;45.80;;;;;;5072559;28;20347;-67
2023/04/15 00:30:55;;;;;;;;;;;17.60;45.80;;;;;;5054535;28;20367;-67
2023/04/15 00:33:20;;;;;;;;;;;17.60;45.80;;;;;;5072337;28;19921;-67
2023/04/15 00:35:46;;;;;;;;;;;17.60;45.80;;;;;;5071381;28;19920;-68
2023/04/15 00:38:11;;;;;;;;;;;17.60;45.90;;;;;;5054264;28;20388;-68
2023/04/15 00:40:37;;;;;;;;;;;17.50;45.80;;;;;;5072454;28;20185;-67
2023/04/15 00:43:03;;;;;;;;;;;17.50;45.80;;;;;;5054511;28;19924;-67
2023/04/15 00:45:29;;;;;;;;;;;17.50;45.80;;;;;;5072296;28;19920;-67
2023/04/15 00:47:54;;;;;;;;;;;17.50;45.80;;;;;;5054202;28;19921;-67
2023/04/15 00:50:20;;;;;;;;;;;17.50;45.80;;;;;;5054179;28;20368;-67
2023/04/15 00:52:46;;;;;;;;;;;17.50;45.80;;;;;;5054531;28;19966;-67
2023/04/15 00:55:11;;;;;;;;;;;17.50;45.80;;;;;;5054176;28;20392;-67
2023/04/15 00:57:37;;;;;;;;;;;17.50;45.80;;;;;;5054076;28;19921;-67
2023/04/15 01:00:06;;;;;;;;;;;17.50;45.80;;;;;;5072028;28;20443;-67
2023/04/15 01:02:33;;;;;;;;;;;17.40;45.80;;;;;;5054047;28;19970;-67
2023/04/15 01:04:58;;;;;;;;;;;17.40;45.80;;;;;;5072070;28;20011;-67
2023/04/15 01:07:24;;;;;;;;;;;17.40;46.60;;;;;;5071988;28;19964;-67
2023/04/15 01:09:49;;;;;;;;;;;17.40;45.80;;;;;;5072036;28;19929;-67
2023/04/15 01:12:15;;;;;;;;;;;17.40;45.80;;;;;;5072257;28;19926;-67
2023/04/15 01:14:41;;;;;;;;;;;17.40;45.90;;;;;;5054148;28;19970;-67
2023/04/15 01:17:07;;;;;;;;;;;17.40;45.90;;;;;;5054226;28;20386;-67
2023/04/15 01:19:33;;;;;;;;;;;17.40;45.90;;;;;;5053996;28;20364;-67
2023/04/15 01:21:58;;;;;;;;;;;17.40;45.90;;;;;;5072062;28;20011;-68
2023/04/15 01:24:26;;;;;;;;;;;17.30;45.90;;;;;;5072045;28;19925;-67
2023/04/15 01:26:52;;;;;;;;;;;17.30;45.90;;;;;;5054140;28;20056;-67
2023/04/15 01:29:18;;;;;;;;;;;17.30;45.90;;;;;;5053686;28;19978;-67
2023/04/15 01:31:51;;;;;;;;;;;17.30;45.90;;;;;;5071836;28;20002;-72
2023/04/15 01:34:17;;;;;;;;;;;17.30;45.90;;;;;;5054072;28;19920;-67
2023/04/15 01:36:42;;;;;;;;;;;17.30;45.90;;;;;;5053731;28;20375;-67
2023/04/15 01:39:08;;;;;;;;;;;17.30;45.90;;;;;;5071643;28;19927;-67
2023/04/15 01:41:34;;;;;;;;;;;17.30;45.90;;;;;;5054044;28;19927;-67
2023/04/15 01:43:59;;;;;;;;;;;17.30;46.00;;;;;;5071617;28;19924;-70
2023/04/15 01:46:25;;;;;;;;;;;17.20;46.00;;;;;;5053985;28;19924;-67
2023/04/15 01:48:50;;;;;;;;;;;17.20;46.00;;;;;;5053339;28;19924;-70
2023/04/15 01:51:16;;;;;;;;;;;17.20;46.10;;;;;;5071546;28;19920;-67
2023/04/15 01:53:41;;;;;;;;;;;17.20;46.10;;;;;;5053607;28;19924;-67
2023/04/15 01:56:07;;;;;;;;;;;17.20;46.20;;;;;;5054717;28;20330;-67
2023/04/15 01:58:32;;;;;;;;;;;17.20;46.20;;;;;;5057232;28;19921;-72
2023/04/15 02:00:58;;;;;;;;;;;17.20;46.20;;;;;;5074899;28;19921;-67
2023/04/15 02:03:24;;;;;;;;;;;17.10;46.20;;;;;;5073769;28;19928;-67
2023/04/15 02:05:50;;;;;;;;;;;17.10;46.30;;;;;;5057216;28;19925;-67
2023/04/15 02:08:15;;;;;;;;;;;17.10;46.30;;;;;;5056942;28;20000;-67
2023/04/15 02:10:41;;;;;;;;;;;17.10;46.30;;;;;;5074864;28;19921;-67
2023/04/15 02:13:06;;;;;;;;;;;17.10;46.30;;;;;;5057178;28;19921;-69
2023/04/15 02:15:32;;;;;;;;;;;17.10;46.30;;;;;;5074649;28;20279;-67
2023/04/15 02:17:59;;;;;;;;;;;17.10;46.40;;;;;;5057230;28;20360;-72
2023/04/15 02:20:25;;;;;;;;;;;17.00;46.30;;;;;;5056757;28;19951;-67
2023/04/15 02:22:51;;;;;;;;;;;17.00;46.30;;;;;;5057140;28;19921;-67
2023/04/15 02:25:16;;;;;;;;;;;17.00;46.40;;;;;;5056831;28;19921;-72
2023/04/15 02:27:43;;;;;;;;;;;17.00;46.40;;;;;;5056728;28;19920;-67
2023/04/15 02:30:09;;;;;;;;;;;17.00;46.40;;;;;;5056500;28;19924;-67
2023/04/15 02:32:36;;;;;;;;;;;17.00;46.40;;;;;;5056887;28;20333;-67
2023/04/15 02:35:03;;;;;;;;;;;17.00;46.40;;;;;;5056747;28;19920;-67
2023/04/15 02:37:29;;;;;;;;;;;16.90;46.40;;;;;;5056493;28;20338;-67
2023/04/15 02:39:55;;;;;;;;;;;16.90;46.40;;;;;;5056563;28;19920;-67
2023/04/15 02:42:21;;;;;;;;;;;16.90;46.40;;;;;;5056697;28;19926;-72
2023/04/15 02:44:46;;;;;;;;;;;16.90;46.40;;;;;;5056434;28;20387;-68
2023/04/15 02:47:13;;;;;;;;;;;16.90;46.40;;;;;;5073122;28;19924;-67
2023/04/15 02:49:39;;;;;;;;;;;17.00;46.50;;;;;;5073938;28;19967;-67
2023/04/15 02:52:05;;;;;;;;;;;16.90;46.50;;;;;;5074099;28;20418;-67
2023/04/15 02:54:32;;;;;;;;;;;16.90;47.20;;;;;;5056047;28;19921;-67
2023/04/15 02:56:58;;;;;;;;;;;16.90;46.50;;;;;;5056400;28;19920;-67
2023/04/15 02:59:24;;;;;;;;;;;16.80;46.50;;;;;;5056131;28;20299;-67
2023/04/15 03:01:49;;;;;;;;;;;16.80;46.50;;;;;;5056250;28;20319;-67
2023/04/15 03:04:15;;;;;;;;;;;16.80;46.50;;;;;;5074017;28;19928;-72
2023/04/15 03:06:41;;;;;;;;;;;16.80;46.50;;;;;;5056183;28;19927;-67
2023/04/15 03:09:06;;;;;;;;;;;16.80;46.50;;;;;;5073860;28;19924;-72
2023/04/15 03:11:32;;;;;;;;;;;16.80;46.50;;;;;;5056136;28;20383;-67
2023/04/15 03:13:57;;;;;;;;;;;16.80;46.50;;;;;;5055847;28;20061;-67
2023/04/15 03:16:23;;;;;;;;;;;16.80;46.50;;;;;;5073862;28;19998;-67
2023/04/15 03:18:49;;;;;;;;;;;16.80;46.50;;;;;;5056026;28;20371;-67
2023/04/15 03:21:15;;;;;;;;;;;16.80;46.60;;;;;;5074031;28;19943;-68
2023/04/15 03:23:40;;;;;;;;;;;16.80;46.60;;;;;;5072167;28;20388;-67
2023/04/15 03:26:06;;;;;;;;;;;16.70;46.50;;;;;;5073498;28;20163;-67
2023/04/15 03:28:31;;;;;;;;;;;16.70;46.50;;;;;;5072106;28;19931;-67
2023/04/15 03:30:57;;;;;;;;;;;16.70;46.50;;;;;;5055582;28;19921;-67
2023/04/15 03:33:23;;;;;;;;;;;16.70;46.60;;;;;;5073486;28;19927;-67
2023/04/15 03:35:49;;;;;;;;;;;16.70;46.60;;;;;;5055696;28;20019;-67
2023/04/15 03:38:15;;;;;;;;;;;16.70;46.60;;;;;;5055300;28;20430;-67
2023/04/15 03:40:41;;;;;;;;;;;16.70;46.60;;;;;;5055655;28;19927;-67
2023/04/15 03:43:09;;;;;;;;;;;16.70;46.60;;;;;;5055283;28;19920;-67
2023/04/15 03:45:35;;;;;;;;;;;16.70;46.60;;;;;;5073156;28;19921;-67
2023/04/15 03:48:00;;;;;;;;;;;16.60;46.60;;;;;;5072654;28;21803;-71
2023/04/15 03:50:26;;;;;;;;;;;16.70;46.60;;;;;;5072999;28;19931;-67
2023/04/15 03:52:52;;;;;;;;;;;16.60;46.50;;;;;;5055366;28;19920;-67
2023/04/15 03:55:18;;;;;;;;;;;16.60;46.60;;;;;;5055379;28;20583;-67
2023/04/15 03:57:44;;;;;;;;;;;16.60;46.60;;;;;;5055047;28;19920;-66
2023/04/15 04:00:10;;;;;;;;;;;16.60;46.60;;;;;;5055330;28;20407;-73
2023/04/15 04:02:35;;;;;;;;;;;16.60;46.60;;;;;;5073029;28;20019;-72
2023/04/15 04:05:01;;;;;;;;;;;16.60;46.60;;;;;;5054966;28;20003;-67
2023/04/15 04:07:26;;;;;;;;;;;16.60;46.60;;;;;;5071941;28;19927;-67
2023/04/15 04:09:52;;;;;;;;;;;16.60;46.60;;;;;;5071457;28;19931;-67
2023/04/15 04:12:17;;;;;;;;;;;16.60;46.60;;;;;;5054754;28;19920;-71
2023/04/15 04:14:43;;;;;;;;;;;16.60;46.60;;;;;;5071590;28;19920;-67
2023/04/15 04:17:08;;;;;;;;;;;16.50;46.60;;;;;;5072595;28;19942;-72
2023/04/15 04:19:34;;;;;;;;;;;16.60;46.60;;;;;;5054097;28;19974;-67
2023/04/15 04:22:00;;;;;;;;;;;16.50;46.60;;;;;;5054677;28;20018;-67
2023/04/15 04:24:25;;;;;;;;;;;16.50;46.60;;;;;;5054971;28;19964;-69
2023/04/15 04:26:51;;;;;;;;;;;16.50;46.60;;;;;;5054801;28;19920;-67
2023/04/15 04:29:16;;;;;;;;;;;16.50;46.70;;;;;;5054321;28;20303;-67
2023/04/15 04:31:42;;;;;;;;;;;16.50;46.60;;;;;;5054793;28;19974;-67
2023/04/15 04:34:07;;;;;;;;;;;16.50;46.60;;;;;;5072338;28;20087;-68
2023/04/15 04:36:33;;;;;;;;;;;16.50;46.60;;;;;;5071040;28;19967;-67
2023/04/15 04:38:58;;;;;;;;;;;16.50;46.70;;;;;;5072648;28;19920;-67
2023/04/15 04:41:24;;;;;;;;;;;16.50;46.60;;;;;;5054279;28;19920;-70
2023/04/15 04:43:49;;;;;;;;;;;16.50;46.70;;;;;;5054365;28;19977;-67
2023/04/15 04:46:15;;;;;;;;;;;16.50;46.70;;;;;;5072291;28;20020;-67
2023/04/15 04:48:40;;;;;;;;;;;16.40;46.70;;;;;;5071919;28;20376;-67
2023/04/15 04:51:06;;;;;;;;;;;16.40;46.60;;;;;;5071056;28;19920;-67
2023/04/15 04:53:32;;;;;;;;;;;16.40;46.70;;;;;;5054269;28;19928;-67
2023/04/15 04:55:57;;;;;;;;;;;16.40;46.70;;;;;;5071158;28;19921;-67
2023/04/15 04:58:23;;;;;;;;;;;16.40;46.70;;;;;;5054210;28;20394;-67
2023/04/15 05:00:48;;;;;;;;;;;16.40;46.80;;;;;;5054338;28;20326;-67
2023/04/15 05:03:14;;;;;;;;;;;16.40;46.70;;;;;;5054467;28;19920;-67
2023/04/15 05:05:40;;;;;;;;;;;16.40;46.70;;;;;;5054247;28;19939;-67
2023/04/15 05:08:06;;;;;;;;;;;16.40;46.70;;;;;;5072104;28;19924;-73
2023/04/15 05:10:31;;;;;;;;;;;16.40;46.70;;;;;;5054056;28;19966;-67
2023/04/15 05:12:57;;;;;;;;;;;16.40;46.70;;;;;;5054069;28;20401;-67
2023/04/15 05:15:22;;;;;;;;;;;16.30;46.70;;;;;;5054244;28;19947;-67
2023/04/15 05:17:48;;;;;;;;;;;16.30;46.70;;;;;;5072018;28;20478;-67
2023/04/15 05:20:14;;;;;;;;;;;16.30;46.70;;;;;;5054394;28;19920;-67
2023/04/15 05:22:40;;;;;;;;;;;16.30;46.70;;;;;;5053926;28;19929;-68
2023/04/15 05:25:05;;;;;;;;;;;16.30;46.70;;;;;;5037526;28;19924;-67
2023/04/15 05:27:31;;;;;;;;;;;16.30;46.70;;;;;;5053898;28;19927;-67
2023/04/15 05:29:56;;;;;;;;;;;16.30;46.70;;;;;;5053908;28;19928;-67
2023/04/15 05:32:22;;;;;;;;;;;16.30;46.70;;;;;;5057117;28;19929;-67
2023/04/15 05:34:47;;;;;;;;;;;16.30;46.70;;;;;;5075729;28;20437;-67
2023/04/15 05:37:13;;;;;;;;;;;16.30;46.70;;;;;;5075294;28;20018;-67
2023/04/15 05:39:38;;;;;;;;;;;16.30;46.80;;;;;;5057975;28;20380;-72
2023/04/15 05:42:04;;;;;;;;;;;16.30;46.70;;;;;;5075732;28;19920;-67
2023/04/15 05:44:30;;;;;;;;;;;16.30;46.80;;;;;;5057886;28;20292;-67
2023/04/15 05:46:59;;;;;;;;;;;16.30;46.80;;;;;;5057764;28;19927;-67
2023/04/15 05:49:25;;;;;;;;;;;16.30;46.80;;;;;;5057257;28;19931;-67
2023/04/15 05:51:50;;;;;;;;;;;16.30;46.90;;;;;;5075449;28;19920;-67
2023/04/15 05:54:16;;;;;;;;;;;16.20;46.80;;;;;;5057387;28;20007;-72
2023/04/15 05:56:42;;;;;;;;;;;16.20;46.80;;;;;;5057511;28;19924;-67
2023/04/15 05:59:07;;;;;;;;;;;16.20;46.80;;;;;;5075593;28;19920;-67
2023/04/15 06:01:33;;;;;;;;;;;16.20;46.80;;;;;;5057470;28;19972;-67
2023/04/15 06:03:59;;;;;;;;;;;16.20;46.80;;;;;;5057207;28;19920;-67
2023/04/15 06:06:26;;;;;;;;;;;16.20;46.80;;;;;;5057328;28;20003;-67
2023/04/15 06:08:51;;;;;;;;;;;16.20;46.90;;;;;;5056940;28;19928;-68
2023/04/15 06:11:17;;;;;;;;;;;16.20;46.90;;;;;;5057381;28;19943;-67
2023/04/15 06:13:42;;;;;;;;;;;16.20;46.90;;;;;;5056889;28;20329;-68
2023/04/15 06:16:08;;;;;;;;;;;16.20;47.70;;;;;;5074886;28;19921;-68
2023/04/15 06:18:33;;;;;;;;;;;16.20;47.00;;;;;;5057172;28;19948;-68
2023/04/15 06:20:59;;;;;;;;;;;16.20;47.00;;;;;;5056865;28;20450;-68
2023/04/15 06:23:25;;;;;;;;;;;16.20;47.00;;;;;;5056927;28;19977;-68
2023/04/15 06:25:50;;;;;;;;;;;16.20;47.00;;;;;;5056662;28;20011;-72
2023/04/15 06:28:15;;;;;;;;;;;16.20;47.00;;;;;;5056678;28;20011;-68
2023/04/15 06:30:41;;;;;;;;;;;16.20;47.00;;;;;;5056871;28;19931;-68
2023/04/15 06:33:06;;;;;;;;;;;16.20;47.00;;;;;;5056910;28;19920;-68
2023/04/15 06:35:32;;;;;;;;;;;16.20;47.00;;;;;;5074497;28;19920;-68
2023/04/15 06:37:57;;;;;;;;;;;16.20;47.00;;;;;;5057103;28;20296;-71
2023/04/15 06:40:23;;;;;;;;;;;16.20;47.00;;;;;;5056373;28;20327;-67
2023/04/15 06:42:48;;;;;;;;;;;16.20;47.00;;;;;;5072931;28;19920;-67
2023/04/15 06:45:14;;;;;;;;;;;16.20;47.00;;;;;;5073319;28;19920;-67
2023/04/15 06:47:40;;;;;;;;;;;16.20;47.00;;;;;;5056409;28;19963;-72
2023/04/15 06:50:06;;;;;;;;;;;16.20;47.00;;;;;;5055902;28;19931;-72
2023/04/15 06:52:31;;;;;;;;;;;16.20;47.00;;;;;;5056381;28;19947;-68
2023/04/15 06:54:58;;;;;;;;;;;16.20;47.00;;;;;;5074060;28;19928;-68
2023/04/15 06:57:24;;;;;;;;;;;16.20;47.00;;;;;;5074302;28;19928;-70
2023/04/15 06:59:51;;;;;;;;;;;16.20;47.00;;;;;;5056393;28;19925;-68
2023/04/15 07:02:17;;;;;;;;;;;16.20;47.00;;;;;;5056355;28;19921;-68
2023/04/15 07:04:42;;;;;;;;;;;16.20;47.00;;;;;;5056365;28;20372;-72
2023/04/15 07:07:08;;;;;;;;;;;16.20;47.00;;;;;;5056288;28;20385;-68
2023/04/15 07:09:33;;;;;;;;;;;16.20;47.00;;;;;;5055761;28;20395;-68
2023/04/15 07:11:59;;;;;;;;;;;16.20;47.00;;;;;;5074068;28;19920;-68
2023/04/15 07:14:24;;;;;;;;;;;16.20;47.00;;;;;;5055789;28;19927;-68
2023/04/15 07:16:50;;;;;;;;;;;16.20;47.00;;;;;;5072758;28;19994;-68
2023/04/15 07:19:16;;;;;;;;;;;16.20;47.00;;;;;;5072799;28;20273;-68
2023/04/15 07:21:41;;;;;;;;;;;16.20;47.00;;;;;;5056004;28;19934;-68
2023/04/15 07:24:07;;;;;;;;;;;16.20;47.00;;;;;;5055639;28;19920;-68
2023/04/15 07:26:33;;;;;;;;;;;16.20;47.00;;;;;;5073329;28;19924;-68
2023/04/15 07:28:58;;;;;;;;;;;16.20;47.00;;;;;;5055550;28;19929;-68
2023/04/15 07:31:24;;;;;;;;;;;16.20;47.00;;;;;;5055477;28;19955;-68
2023/04/15 07:33:49;;;;;;;;;;;16.20;47.10;;;;;;5055759;28;19974;-72
2023/04/15 07:36:14;;;;;;;;;;;16.20;47.10;;;;;;5055547;28;19920;-71
2023/04/15 07:38:40;;;;;;;;;;;16.20;47.10;;;;;;5072060;28;19927;-68
2023/04/15 07:41:06;;;;;;;;;;;16.20;47.00;;;;;;5073077;28;19993;-67
2023/04/15 07:43:31;;;;;;;;;;;16.20;47.00;;;;;;5055617;28;19920;-67
2023/04/15 07:45:57;;;;;;;;;;;16.20;47.10;;;;;;5072082;28;19920;-67
2023/04/15 07:48:22;;;;;;;;;;;16.20;47.00;;;;;;5071594;28;20299;-68
2023/04/15 07:50:48;;;;;;;;;;;16.30;47.10;;;;;;5073049;28;19924;-68
2023/04/15 07:53:13;;;;;;;;;;;16.20;47.10;;;;;;5072956;28;19920;-71
2023/04/15 07:55:39;;;;;;;;;;;16.20;47.10;;;;;;5054936;28;20190;-67
2023/04/15 07:58:04;;;;;;;;;;;16.30;47.10;;;;;;5055287;28;19920;-67
2023/04/15 08:00:30;;;;;;;;;;;16.20;47.10;;;;;;5055046;28;20428;-67
2023/04/15 08:02:58;;;;;;;;;;;16.20;47.10;;;;;;5055183;28;19920;-68
2023/04/15 08:05:24;;;;;;;;;;;16.20;47.10;;;;;;5055111;28;20417;-67
2023/04/15 08:07:50;;;;;;;;;;;16.20;47.20;;;;;;5054831;28;19974;-67
2023/04/15 08:10:16;;;;;;;;;;;16.20;47.20;;;;;;5054809;28;19967;-67
2023/04/15 08:12:41;;;;;;;;;;;16.30;47.20;;;;;;5054623;28;19925;-67
2023/04/15 08:15:08;;;;;;;;;;;16.20;47.20;;;;;;5055075;28;19920;-67
2023/04/15 08:17:33;;;;;;;;;;;16.30;47.20;;;;;;5054722;28;20011;-67
2023/04/15 08:19:59;;;;;;;;;;;16.30;47.20;;;;;;5055016;28;20012;-67
2023/04/15 08:22:25;;;;;;;;;;;16.30;47.20;;;;;;5072593;28;19927;-67
2023/04/15 08:24:50;;;;;;;;;;;16.30;47.20;;;;;;5054602;28;19960;-67
2023/04/15 08:27:16;;;;;;;;;;;16.20;47.20;;;;;;5072237;28;19959;-67
2023/04/15 08:29:41;;;;;;;;;;;16.30;47.20;;;;;;5054603;28;20007;-67
2023/04/15 08:32:07;;;;;;;;;;;16.30;47.20;;;;;;5072391;28;20376;-67
2023/04/15 08:34:33;;;;;;;;;;;16.30;47.30;;;;;;5054747;28;19927;-70
2023/04/15 08:36:59;;;;;;;;;;;16.30;47.30;;;;;;5054638;28;20256;-67
2023/04/15 08:39:24;;;;;;;;;;;16.30;47.30;;;;;;5071120;28;19935;-67
2023/04/15 08:41:55;;;;;;;;;;;16.30;47.30;;;;;;5072311;28;19925;-68
2023/04/15 08:44:22;;;;;;;;;;;16.30;47.30;;;;;;5072173;28;19921;-67
2023/04/15 08:46:48;;;;;;;;;;;16.30;47.40;;;;;;5072457;28;19943;-67
2023/04/15 08:49:14;;;;;;;;;;;16.30;47.40;;;;;;5071859;28;19925;-67
2023/04/15 08:51:40;;;;;;;;;;;16.30;47.40;;;;;;5072196;28;19925;-67
2023/04/15 08:54:07;;;;;;;;;;;16.20;47.40;;;;;;5072154;28;20268;-67
2023/04/15 08:56:33;;;;;;;;;;;16.30;47.40;;;;;;5072093;28;19920;-67
2023/04/15 08:58:59;;;;;;;;;;;16.30;47.40;;;;;;5054133;28;19920;-67
2023/04/15 09:01:25;;;;;;;;;;;16.30;47.40;;;;;;5054099;28;19924;-67
2023/04/15 09:03:52;;;;;;;;;;;16.20;47.40;;;;;;5054379;28;19925;-67
2023/04/15 09:06:17;;;;;;;;;;;16.20;47.40;;;;;;5057183;28;20396;-68
2023/04/15 09:08:43;;;;;;;;;;;16.30;47.50;;;;;;5076071;28;19950;-68
2023/04/15 09:11:09;;;;;;;;;;;16.20;47.50;;;;;;5058483;28;20360;-67
2023/04/15 09:13:34;;;;;;;;;;;16.20;47.50;;;;;;5057890;28;19979;-67
2023/04/15 09:16:02;;;;;;;;;;;16.20;47.50;;;;;;5058032;28;19921;-67
2023/04/15 09:18:28;;;;;;;;;;;16.20;47.50;;;;;;5058275;28;19920;-68
2023/04/15 09:20:54;;;;;;;;;;;16.30;47.60;;;;;;5058334;28;19921;-67
2023/04/15 09:23:19;;;;;;;;;;;16.20;47.60;;;;;;5076185;28;19924;-67
2023/04/15 09:25:45;;;;;;;;;;;16.20;47.60;;;;;;5057999;28;19920;-68
2023/04/15 09:28:10;;;;;;;;;;;16.30;47.70;;;;;;5058046;28;19921;-71
2023/04/15 09:30:36;;;;;;;;;;;16.30;47.60;;;;;;5057720;28;19928;-67
2023/04/15 09:33:03;;;;;;;;;;;16.20;47.60;;;;;;5075718;28;20007;-67
2023/04/15 09:35:29;;;;;;;;;;;16.20;47.70;;;;;;5075749;28;19920;-67
2023/04/15 09:38:03;;;;;;;;;;;16.20;47.70;;;;;;5057996;28;19944;-67
2023/04/15 09:40:31;;;;;;;;;;;16.20;47.80;;;;;;5075565;28;20006;-67
2023/04/15 09:42:56;;;;;;;;;;;16.20;47.70;;;;;;5057731;28;19920;-67
2023/04/15 09:45:22;;;;;;;;;;;16.20;47.70;;;;;;5075342;28;19927;-67
2023/04/15 09:47:50;;;;;;;;;;;16.20;47.80;;;;;;5057374;28;20383;-67
2023/04/15 09:50:15;;;;;;;;;;;16.20;47.80;;;;;;5074979;28;19931;-67
2023/04/15 09:52:42;;;;;;;;;;;16.20;47.80;;;;;;5057423;28;19920;-68
2023/04/15 09:55:08;;;;;;;;;;;16.20;47.90;;;;;;5057687;28;19920;-67
2023/04/15 09:57:35;;;;;;;;;;;16.20;47.90;;;;;;5057545;28;19920;-67
2023/04/15 10:00:01;;;;;;;;;;;16.10;47.90;;;;;;5075201;28;19920;-67
2023/04/15 10:02:28;;;;;;;;;;;16.20;47.90;;;;;;5057503;28;19943;-67
2023/04/15 10:04:54;;;;;;;;;;;16.20;48.00;;;;;;5075118;28;19974;-67
2023/04/15 10:07:21;;;;;;;;;;;16.10;47.90;;;;;;5073819;28;19925;-67
2023/04/15 10:09:47;;;;;;;;;;;16.20;48.00;;;;;;5057274;28;19931;-67
2023/04/15 10:12:15;;;;;;;;;;;16.20;48.00;;;;;;5057182;28;19920;-67
2023/04/15 10:14:41;;;;;;;;;;;16.20;48.80;;;;;;5057009;28;20402;-67
2023/04/15 10:17:10;;;;;;;;;;;16.20;48.00;;;;;;5056493;28;19982;-67
2023/04/15 10:19:36;;;;;;;;;;;16.10;48.00;;;;;;5056940;28;20489;-67
2023/04/15 10:22:02;;;;;;;;;;;16.20;48.00;;;;;;5057200;28;20441;-67
2023/04/15 10:24:28;;;;;;;;;;;16.20;48.00;;;;;;5056834;28;19963;-67
2023/04/15 10:26:54;;;;;;;;;;;16.10;48.00;;;;;;5056994;28;19967;-67
2023/04/15 10:29:19;;;;;;;;;;;16.10;48.00;;;;;;5056843;28;20015;-67
2023/04/15 10:31:45;;;;;;;;;;;16.10;48.00;;;;;;5056676;28;20474;-67
2023/04/15 10:34:11;;;;;;;;;;;16.10;48.00;;;;;;5056991;28;19921;-67
2023/04/15 10:36:37;;;;;;;;;;;16.10;48.00;;;;;;5056499;28;20299;-67
2023/04/15 10:39:22;;;;;;;;;;;16.10;48.00;;;;;;5056563;28;19927;-67
2023/04/15 10:42:05;;;;;;;;;;;16.10;48.00;;;;;;5056247;28;19920;-67
2023/04/15 10:44:30;;;;;;;;;;;16.20;48.10;;;;;;5074684;28;19924;-67
2023/04/15 10:46:57;;;;;;;;;;;16.10;48.00;;;;;;5056446;28;20440;-67
2023/04/15 10:49:24;;;;;;;;;;;16.20;48.10;;;;;;5056144;28;19925;-67
2023/04/15 10:51:50;;;;;;;;;;;16.10;48.00;;;;;;5056564;28;20386;-67
2023/04/15 10:54:29;;;;;;;;;;;16.20;48.10;;;;;;5056276;28;19921;-67
2023/04/15 10:57:15;;;;;;;;;;;16.20;48.10;;;;;;5074123;28;19924;-67
2023/04/15 11:00:03;;;;;;;;;;;16.20;48.10;;;;;;5056334;28;19921;-67
2023/04/15 11:02:49;;;;;;;;;;;16.10;48.10;;;;;;5055896;28;20383;-67
2023/04/15 11:05:15;;;;;;;;;;;16.10;48.10;;;;;;5056296;28;20315;-68
2023/04/15 11:07:47;;;;;;;;;;;16.10;48.10;;;;;;5056066;28;20015;-68
2023/04/15 11:12:56;;;;;;;;;;;16.10;48.10;;;;;;5089748;28;19912;-67
2023/04/15 11:15:26;;;;;;;;;;;16.10;48.10;;;;;;5088698;28;19920;-67
2023/04/15 11:17:52;;;;;;;;;;;16.10;48.10;;;;;;5088770;28;19920;-67
2023/04/15 11:20:17;;;;;;;;;;;16.20;48.20;;;;;;5088757;28;19970;-67
2023/04/15 11:22:50;;;;;;;;;;;16.10;48.20;;;;;;5088688;28;20350;-67
2023/04/15 11:25:32;;;;;;;;;;;16.10;48.20;;;;;;5088569;28;20042;-67
2023/04/15 11:27:59;;;;;;;;;;;16.10;48.20;;;;;;5088211;28;19924;-67
2023/04/15 11:30:25;;;;;;;;;;;16.10;48.20;;;;;;5089481;28;20190;-67
2023/04/15 11:32:51;;;;;;;;;;;16.00;48.10;;;;;;5088569;28;20322;-67
2023/04/15 11:35:17;;;;;;;;;;;16.10;48.20;;;;;;5089516;28;19921;-67
2023/04/15 11:37:44;;;;;;;;;;;16.10;48.20;;;;;;5088459;28;19966;-67
2023/04/15 11:40:10;;;;;;;;;;;16.10;48.30;;;;;;5088046;28;19946;-67
2023/04/15 11:42:35;;;;;;;;;;;16.10;48.30;;;;;;5088055;28;19925;-67
2023/04/15 11:45:09;;;;;;;;;;;16.10;48.30;;;;;;5089511;28;19924;-66
2023/04/15 11:47:35;;;;;;;;;;;16.10;48.30;;;;;;5088058;28;19920;-67
2023/04/15 11:50:21;;;;;;;;;;;16.10;48.30;;;;;;5088183;28;20292;-67
2023/04/15 11:52:54;;;;;;;;;;;16.10;48.30;;;;;;5104723;28;20033;-67
2023/04/15 11:55:20;;;;;;;;;;;16.10;48.30;;;;;;5087948;28;19920;-67
2023/04/15 11:57:45;;;;;;;;;;;16.10;48.30;;;;;;5087826;28;20395;-67
2023/04/15 12:00:11;;;;;;;;;;;16.10;48.30;;;;;;5088009;28;19921;-67
2023/04/15 12:02:37;;;;;;;;;;;16.10;48.40;;;;;;5089191;28;19927;-67
2023/04/15 12:05:05;;;;;;;;;;;16.10;48.40;;;;;;5087890;28;19942;-67
2023/04/15 12:07:31;;;;;;;;;;;16.10;49.10;;;;;;5087920;28;20313;-67
2023/04/15 12:09:57;;;;;;;;;;;16.10;48.40;;;;;;5087425;28;20387;-67
2023/04/15 12:12:27;;;;;;;;;;;16.10;48.40;;;;;;5087237;28;19932;-67
2023/04/15 12:14:53;;;;;;;;;;;16.10;48.50;;;;;;5087695;28;20295;-67
2023/04/15 12:17:18;;;;;;;;;;;16.00;48.50;;;;;;5087663;28;19920;-67
2023/04/15 12:19:44;;;;;;;;;;;16.00;48.50;;;;;;5088606;28;19920;-67
2023/04/15 12:22:12;;;;;;;;;;;16.00;48.50;;;;;;5085477;28;20379;-67
2023/04/15 12:24:38;;;;;;;;;;;16.00;48.50;;;;;;5073752;28;20359;-67
2023/04/15 12:27:06;;;;;;;;;;;16.00;48.50;;;;;;5074218;28;19941;-67
2023/04/15 12:29:32;;;;;;;;;;;16.00;48.50;;;;;;5075041;28;19928;-67
2023/04/15 12:32:02;;;;;;;;;;;16.00;48.50;;;;;;5074920;28;19924;-67
2023/04/15 12:34:29;;;;;;;;;;;16.00;48.60;;;;;;5073932;28;20364;-67
2023/04/15 12:36:56;;;;;;;;;;;16.00;48.60;;;;;;5074605;28;20402;-67
2023/04/15 12:39:23;;;;;;;;;;;16.00;48.60;;;;;;5072776;28;20034;-67
2023/04/15 12:41:48;;;;;;;;;;;16.00;48.70;;;;;;5074935;28;20034;-67
2023/04/15 12:44:14;;;;;;;;;;;16.00;48.70;;;;;;5074647;28;20431;-66
2023/04/15 12:46:40;;;;;;;;;;;16.00;48.80;;;;;;5074690;28;19921;-66
2023/04/15 12:49:05;;;;;;;;;;;16.00;49.10;;;;;;5073319;28;19972;-66
2023/04/15 12:51:31;;;;;;;;;;;16.00;49.40;;;;;;5073286;28;19968;-66
2023/04/15 12:53:57;;;;;;;;;;;16.10;49.70;;;;;;5074729;28;20338;-65
2023/04/15 12:56:22;;;;;;;;;;;16.10;49.80;;;;;;5074290;28;19928;-66
2023/04/15 12:58:48;;;;;;;;;;;16.10;49.80;;;;;;5072629;28;19921;-69
2023/04/15 13:01:14;;;;;;;;;;;16.20;50.10;;;;;;5072806;28;20019;-68
2023/04/15 13:03:39;;;;;;;;;;;16.20;50.20;;;;;;5069754;28;19929;-66
2023/04/15 13:06:05;;;;;;;;;;;16.20;50.40;;;;;;5069408;28;19928;-67
2023/04/15 13:08:31;;;;;;;;;;;16.30;50.60;;;;;;5070664;28;19928;-67
2023/04/15 13:10:57;;;;;;;;;;;16.30;51.40;;;;;;5073962;28;19924;-65
2023/04/15 13:13:22;;;;;;;;;;;16.30;50.60;;;;;;5074288;28;19920;-66
2023/04/15 13:15:48;;;;;;;;;;;16.30;50.80;;;;;;5072845;28;20286;-66
2023/04/15 13:18:14;;;;;;;;;;;16.40;50.90;;;;;;5073793;28;19920;-65
2023/04/15 13:20:40;;;;;;;;;;;16.40;51.00;;;;;;5073037;28;19928;-68
2023/04/15 13:23:05;;;;;;;;;;;16.50;51.10;;;;;;5089684;28;19924;-67
2023/04/15 13:25:31;;;;;;;;;;;16.50;51.20;;;;;;5074217;28;20023;-68
2023/04/15 13:27:57;;;;;;;;;;;16.50;51.30;;;;;;5070960;28;20378;-68
2023/04/15 13:30:22;;;;;;;;;;;16.60;51.30;;;;;;5092726;28;19920;-68
2023/04/15 13:32:48;;;;;;;;;;;16.60;51.40;;;;;;5092432;28;20398;-67
2023/04/15 13:35:14;;;;;;;;;;;16.60;51.40;;;;;;5073243;28;19920;-67
2023/04/15 13:37:39;;;;;;;;;;;16.60;51.50;;;;;;5072796;28;20019;-66
2023/04/15 13:40:06;;;;;;;;;;;16.70;51.50;;;;;;5075842;28;19924;-66
2023/04/15 13:42:32;;;;;;;;;;;16.60;51.40;;;;;;5085812;28;20711;-66
2023/04/15 13:44:57;;;;;;;;;;;16.60;51.40;;;;;;5072733;28;19971;-66
2023/04/15 13:47:23;;;;;;;;;;;16.60;51.20;;;;;;5072499;28;19920;-66
2023/04/15 13:49:48;;;;;;;;;;;16.60;51.20;;;;;;5055587;28;19926;-66
2023/04/15 13:52:14;;;;;;;;;;;16.60;51.20;;;;;;5055329;28;19924;-66
2023/04/15 13:54:39;;;;;;;;;;;16.50;51.10;;;;;;5058614;28;19971;-67
2023/04/15 13:57:05;;;;;;;;;;;16.40;51.10;;;;;;5074961;28;19931;-66
2023/04/15 13:59:33;;;;;;;;;;;16.40;51.10;;;;;;5075187;28;19920;-66
2023/04/15 14:01:59;;;;;;;;;;;16.40;51.10;;;;;;5075504;28;19920;-66
2023/04/15 14:04:24;;;;;;;;;;;16.40;51.20;;;;;;5093620;28;20462;-67
2023/04/15 14:06:50;;;;;;;;;;;16.40;51.10;;;;;;5055169;28;19956;-66
2023/04/15 14:09:15;;;;;;;;;;;16.30;51.10;;;;;;5072038;28;19927;-66
2023/04/15 14:11:41;;;;;;;;;;;16.30;51.10;;;;;;5067300;28;19924;-67
2023/04/15 14:14:06;;;;;;;;;;;16.30;51.20;;;;;;5075272;28;20514;-66